Time;durP1;ratioP1;P1;durP2;ratioP2;P2;SDS_P1;SDS_P2;PMS_P1;PMS_P2;Temp;Humidity;BMP_temperature;BMP_pressure;BME280_temperature;BME280_humidity;BME280_pressure;Samples;Min_cycle;Max_cycle;Signal;HPM_P1;HPM_P2
2022/02/02 00:04:26;;;;;;;;;;;0.70;79.20;;;;;;5022051;28;92158;-45
2022/02/02 00:07:46;;;;;;;;;;;0.70;79.20;;;;;;5023828;28;93627;-46
2022/02/02 00:09:49;;;;;;;;;;;0.70;79.10;;;;;;5020438;28;92243;-47
2022/02/02 00:12:24;;;;;;;;;;;0.80;79.20;;;;;;5021868;28;94023;-44
2022/02/02 00:15:02;;;;;;;;;;;0.80;79.10;;;;;;5021397;28;93667;-44
2022/02/02 00:20:31;;;;;;;;;;;0.80;79.20;;;;;;4984036;28;92176;-46
2022/02/02 00:23:01;;;;;;;;;;;0.80;79.20;;;;;;5021067;28;94344;-45
2022/02/02 00:25:33;;;;;;;;;;;0.80;79.20;;;;;;5022148;28;91375;-45
2022/02/02 00:28:02;;;;;;;;;;;0.70;79.10;;;;;;5021656;28;93083;-44
2022/02/02 00:30:32;;;;;;;;;;;0.80;79.10;;;;;;5023946;28;94434;-47
2022/02/02 00:35:43;;;;;;;;;;;0.70;79.10;;;;;;5019268;28;93102;-43
2022/02/02 00:38:08;;;;;;;;;;;0.80;79.30;;;;;;5021267;28;92099;-45
2022/02/02 00:40:34;;;;;;;;;;;0.70;79.10;;;;;;5021387;28;93742;-44
2022/02/02 00:42:59;;;;;;;;;;;0.80;79.10;;;;;;5020581;28;93928;-45
2022/02/02 00:45:31;;;;;;;;;;;0.80;79.10;;;;;;5020780;28;92144;-43
2022/02/02 00:47:59;;;;;;;;;;;0.70;79.10;;;;;;5021320;28;93732;-43
2022/02/02 00:50:26;;;;;;;;;;;0.70;79.10;;;;;;5020989;28;93559;-44
2022/02/02 00:52:52;;;;;;;;;;;0.70;79.20;;;;;;5024349;28;92290;-44
2022/02/02 00:55:18;;;;;;;;;;;0.70;79.20;;;;;;5020458;28;94605;-43
2022/02/02 00:57:44;;;;;;;;;;;0.70;79.20;;;;;;5019879;28;93109;-44
2022/02/02 01:00:09;;;;;;;;;;;0.70;79.20;;;;;;5020930;28;94877;-43
2022/02/02 01:02:35;;;;;;;;;;;0.70;79.10;;;;;;5020375;28;95627;-44
2022/02/02 01:05:00;;;;;;;;;;;0.70;79.10;;;;;;5020840;28;92262;-44
2022/02/02 01:10:11;;;;;;;;;;;0.70;79.30;;;;;;5019858;28;93078;-45
2022/02/02 01:18:27;;;;;;;;;;;0.70;79.20;;;;;;5019965;28;92045;-44
2022/02/02 01:21:02;;;;;;;;;;;0.70;79.30;;;;;;5020680;28;93743;-44
2022/02/02 01:28:56;;;;;;;;;;;0.70;79.20;;;;;;5020841;28;91979;-44
2022/02/02 01:31:22;;;;;;;;;;;0.70;79.40;;;;;;5019572;28;95021;-44
2022/02/02 01:33:48;;;;;;;;;;;0.60;79.40;;;;;;5021035;28;92137;-44
2022/02/02 01:36:14;;;;;;;;;;;0.70;79.40;;;;;;5023098;28;93907;-44
2022/02/02 01:38:41;;;;;;;;;;;0.70;79.20;;;;;;5019152;28;91877;-45
2022/02/02 01:41:12;;;;;;;;;;;0.70;79.20;;;;;;5020177;28;93632;-44
2022/02/02 01:44:27;;;;;;;;;;;0.70;79.20;;;;;;5018574;28;95866;-44
2022/02/02 01:46:31;;;;;;;;;;;0.70;79.30;;;;;;5016581;28;92197;-44
2022/02/02 01:53:58;;;;;;;;;;;0.70;79.30;;;;;;5020355;28;92218;-44
2022/02/02 01:56:23;;;;;;;;;;;0.70;79.30;;;;;;5019852;28;92864;-46
2022/02/02 01:59:00;;;;;;;;;;;0.60;79.30;;;;;;5022597;28;94726;-46
2022/02/02 02:01:29;;;;;;;;;;;0.60;79.30;;;;;;5020251;28;93867;-44
2022/02/02 02:03:55;;;;;;;;;;;0.70;79.20;;;;;;5019553;28;94497;-43
2022/02/02 02:06:21;;;;;;;;;;;0.60;79.30;;;;;;5020607;28;91500;-44
2022/02/02 02:08:47;;;;;;;;;;;0.60;79.30;;;;;;5019030;28;93394;-45
2022/02/02 02:11:22;;;;;;;;;;;0.70;79.40;;;;;;5019431;28;95061;-44
2022/02/02 02:14:35;;;;;;;;;;;0.60;79.40;;;;;;5018321;28;93006;-47
2022/02/02 02:16:46;;;;;;;;;;;0.60;79.30;;;;;;5019253;28;94559;-44
2022/02/02 02:19:11;;;;;;;;;;;0.60;79.40;;;;;;5019255;28;94545;-44
2022/02/02 02:21:38;;;;;;;;;;;0.60;79.30;;;;;;5022792;28;91886;-44
2022/02/02 02:24:04;;;;;;;;;;;0.60;79.30;;;;;;5019381;28;94564;-43
2022/02/02 02:26:30;;;;;;;;;;;0.60;79.40;;;;;;5019951;28;92152;-44
2022/02/02 02:55:50;;;;;;;;;;;0.60;79.30;;;;;;5017573;28;91939;-43
2022/02/02 03:30:49;;;;;;;;;;;0.60;79.60;;;;;;5024682;28;92583;-43
2022/02/02 03:49:51;;;;;;;;;;;0.50;79.50;;;;;;5019622;28;91998;-43
2022/02/02 04:02:48;;;;;;;;;;;0.50;79.50;;;;;;5020237;28;92463;-44
2022/02/02 04:08:07;;;;;;;;;;;0.50;79.60;;;;;;5021665;28;92204;-43
2022/02/02 04:10:33;;;;;;;;;;;0.60;79.60;;;;;;5021909;28;94060;-44
2022/02/02 04:13:10;;;;;;;;;;;0.50;79.50;;;;;;5021601;28;92165;-44
2022/02/02 04:54:14;;;;;;;;;;;0.50;79.40;;;;;;5019979;28;92905;-44
2022/02/02 04:59:20;;;;;;;;;;;0.50;79.40;;;;;;5021118;28;92143;-43
2022/02/02 05:05:02;;;;;;;;;;;0.50;79.50;;;;;;5020189;28;92985;-43
2022/02/02 05:18:14;;;;;;;;;;;0.50;79.50;;;;;;5020410;28;92906;-45
2022/02/02 05:52:56;;;;;;;;;;;0.50;79.50;;;;;;5020588;28;92395;-43
2022/02/02 05:55:22;;;;;;;;;;;0.50;79.50;;;;;;5020136;28;92123;-44
2022/02/02 05:57:49;;;;;;;;;;;0.40;79.40;;;;;;5020439;28;92519;-45
2022/02/02 06:00:15;;;;;;;;;;;0.50;79.50;;;;;;5019620;28;94524;-43
2022/02/02 06:02:43;;;;;;;;;;;0.40;79.40;;;;;;5020022;28;92217;-43
2022/02/02 06:05:09;;;;;;;;;;;0.40;79.40;;;;;;5020497;28;93740;-44
2022/02/02 06:07:36;;;;;;;;;;;0.40;79.50;;;;;;5019730;28;93066;-43
2022/02/02 06:10:06;;;;;;;;;;;0.40;79.60;;;;;;5019905;28;93002;-43
2022/02/02 06:12:32;;;;;;;;;;;0.40;79.50;;;;;;5019486;28;92936;-43
2022/02/02 06:15:08;;;;;;;;;;;0.40;79.70;;;;;;5022496;28;94345;-44
2022/02/02 06:17:35;;;;;;;;;;;0.40;79.50;;;;;;5020018;28;93901;-45
2022/02/02 06:20:00;;;;;;;;;;;0.40;79.50;;;;;;5019400;28;93135;-43
2022/02/02 06:22:31;;;;;;;;;;;0.40;79.40;;;;;;5019821;28;92185;-44
2022/02/02 06:25:03;;;;;;;;;;;0.40;79.40;;;;;;5020114;28;93787;-45
2022/02/02 06:27:28;;;;;;;;;;;0.40;79.50;;;;;;5019280;28;94619;-43
2022/02/02 06:29:59;;;;;;;;;;;0.40;79.60;;;;;;5020177;28;91415;-43
2022/02/02 06:32:26;;;;;;;;;;;0.40;79.60;;;;;;5019457;28;92522;-44
2022/02/02 06:34:55;;;;;;;;;;;0.40;79.50;;;;;;5019443;28;92323;-44
2022/02/02 06:37:21;;;;;;;;;;;0.40;79.50;;;;;;5022020;28;93081;-44
2022/02/02 06:39:50;;;;;;;;;;;0.40;79.50;;;;;;5019188;28;94812;-43
2022/02/02 06:42:16;;;;;;;;;;;0.40;79.40;;;;;;5019225;28;92180;-44
2022/02/02 06:44:42;;;;;;;;;;;0.40;79.60;;;;;;5019624;28;93380;-43
2022/02/02 06:47:08;;;;;;;;;;;0.40;79.50;;;;;;5019031;28;94344;-44
2022/02/02 06:49:36;;;;;;;;;;;0.40;79.50;;;;;;5019402;28;92165;-44
2022/02/02 06:52:13;;;;;;;;;;;0.40;79.40;;;;;;5019496;28;93991;-44
2022/02/02 06:54:49;;;;;;;;;;;0.40;79.40;;;;;;5020820;28;94064;-45
2022/02/02 06:57:22;;;;;;;;;;;0.40;79.40;;;;;;5023073;28;92096;-43
2022/02/02 07:00:06;;;;;;;;;;;0.40;79.50;;;;;;5025604;28;94197;-44
2022/02/02 07:17:54;;;;;;;;;;;0.40;79.30;;;;;;5022694;28;92174;-46
2022/02/02 07:20:36;;;;;;;;;;;0.50;79.40;;;;;;5023126;28;93946;-45
2022/02/02 07:31:18;;;;;;;;;;;0.50;79.50;;;;;;5020239;28;92320;-44
2022/02/02 07:33:47;;;;;;;;;;;0.40;79.30;;;;;;5022521;28;93657;-44
2022/02/02 07:36:24;;;;;;;;;;;0.40;79.40;;;;;;5021848;28;94168;-45
2022/02/02 07:39:13;;;;;;;;;;;0.40;79.60;;;;;;5022534;28;92061;-45
2022/02/02 07:41:43;;;;;;;;;;;0.40;79.30;;;;;;5022158;28;93734;-44
2022/02/02 07:44:15;;;;;;;;;;;0.50;79.40;;;;;;5021882;28;94173;-43
2022/02/02 07:46:46;;;;;;;;;;;0.40;79.50;;;;;;5025661;28;91219;-44
2022/02/02 07:49:14;;;;;;;;;;;0.40;79.40;;;;;;5021519;28;95581;-45
2022/02/02 07:51:41;;;;;;;;;;;0.40;79.50;;;;;;5021962;28;92149;-43
2022/02/02 07:54:14;;;;;;;;;;;0.50;79.50;;;;;;5021605;28;93864;-44
2022/02/02 07:56:42;;;;;;;;;;;0.40;79.40;;;;;;5021641;28;94517;-43
2022/02/02 08:00:03;;;;;;;;;;;0.40;79.40;;;;;;5022169;28;92076;-44
2022/02/02 08:02:03;;;;;;;;;;;0.50;79.40;;;;;;5013881;28;92301;-44
2022/02/02 08:04:30;;;;;;;;;;;0.50;79.30;;;;;;5020320;28;96119;-43
2022/02/02 08:06:56;;;;;;;;;;;0.50;79.20;;;;;;5023633;28;92174;-43
2022/02/02 08:11:52;;;;;;;;;;;0.50;79.20;;;;;;5022351;28;91441;-44
2022/02/02 08:14:19;;;;;;;;;;;0.60;79.20;;;;;;5021931;28;93213;-44
2022/02/02 08:16:44;;;;;;;;;;;0.60;79.20;;;;;;5021067;28;94557;-44
2022/02/02 08:19:10;;;;;;;;;;;0.60;79.10;;;;;;5020837;28;93007;-43
2022/02/02 08:21:35;;;;;;;;;;;0.60;79.00;;;;;;5021642;28;94386;-44
2022/02/02 08:24:01;;;;;;;;;;;0.60;79.00;;;;;;5021132;28;94567;-43
2022/02/02 08:26:26;;;;;;;;;;;0.60;79.10;;;;;;5021773;28;92202;-44
2022/02/02 08:28:56;;;;;;;;;;;0.60;79.00;;;;;;5023923;28;93794;-44
2022/02/02 08:31:24;;;;;;;;;;;0.60;78.90;;;;;;5021421;28;92227;-43
2022/02/02 08:33:50;;;;;;;;;;;0.60;79.10;;;;;;5021600;28;93836;-45
2022/02/02 08:36:18;;;;;;;;;;;0.60;79.20;;;;;;5021360;28;93835;-44
2022/02/02 08:41:57;;;;;;;;;;;0.60;79.20;;;;;;5021289;28;92380;-44
2022/02/02 08:44:03;;;;;;;;;;;0.60;79.20;;;;;;5016744;28;95265;-44
2022/02/02 08:46:35;;;;;;;;;;;0.60;79.10;;;;;;5021491;28;91968;-47
2022/02/02 08:49:03;;;;;;;;;;;0.60;79.00;;;;;;5021254;28;93967;-45
2022/02/02 08:51:33;;;;;;;;;;;0.60;79.20;;;;;;5023752;28;93497;-44
2022/02/02 08:59:37;;;;;;;;;;;0.60;79.20;;;;;;5019222;28;93185;-46
2022/02/02 09:02:07;;;;;;;;;;;0.60;79.20;;;;;;5021506;28;93851;-45
2022/02/02 09:07:17;;;;;;;;;;;0.60;79.40;;;;;;5018380;28;91882;-44
2022/02/02 09:21:09;;;;;;;;;;;0.60;79.50;;;;;;5021045;28;91975;-45
2022/02/02 09:36:24;;;;;;;;;;;0.60;79.60;;;;;;5019645;28;92919;-44
2022/02/02 09:38:54;;;;;;;;;;;0.60;79.60;;;;;;5023039;28;95005;-44
2022/02/02 09:41:49;;;;;;;;;;;0.60;79.60;;;;;;5020125;28;92007;-43
2022/02/02 09:44:19;;;;;;;;;;;0.60;79.70;;;;;;5020619;28;93809;-44
2022/02/02 09:47:00;;;;;;;;;;;0.60;79.70;;;;;;5019632;28;96124;-43
2022/02/02 09:49:33;;;;;;;;;;;0.60;79.80;;;;;;5020590;28;91978;-44
2022/02/02 09:52:04;;;;;;;;;;;0.60;79.70;;;;;;5020349;28;93706;-45
2022/02/02 10:04:57;;;;;;;;;;;0.60;79.70;;;;;;5019167;28;92530;-44
2022/02/02 10:10:17;;;;;;;;;;;0.60;79.80;;;;;;5020044;28;92177;-44
2022/02/02 10:15:15;;;;;;;;;;;0.60;79.80;;;;;;5019614;28;92250;-44
2022/02/02 10:17:41;;;;;;;;;;;0.60;79.70;;;;;;5019789;28;92174;-44
2022/02/02 10:20:20;;;;;;;;;;;0.60;79.80;;;;;;5020037;28;93796;-44
2022/02/02 10:22:47;;;;;;;;;;;0.60;79.70;;;;;;5022286;28;93926;-44
2022/02/02 10:25:23;;;;;;;;;;;0.60;79.80;;;;;;5019686;28;93751;-45
2022/02/02 10:27:50;;;;;;;;;;;0.70;79.60;;;;;;5018726;28;95277;-44
2022/02/02 10:30:17;;;;;;;;;;;0.60;79.60;;;;;;5021931;28;91982;-43
2022/02/02 10:32:44;;;;;;;;;;;0.60;79.70;;;;;;5023309;28;92380;-44
2022/02/02 10:35:26;;;;;;;;;;;0.60;79.50;;;;;;5022762;28;94593;-45
2022/02/02 10:37:59;;;;;;;;;;;0.60;79.50;;;;;;5023370;28;92021;-45
2022/02/02 10:40:32;;;;;;;;;;;0.70;79.60;;;;;;5023208;28;94264;-45
2022/02/02 10:42:58;;;;;;;;;;;0.60;79.60;;;;;;5022167;28;94559;-45
2022/02/02 10:45:30;;;;;;;;;;;0.60;79.50;;;;;;5026588;28;91490;-43
2022/02/02 10:48:14;;;;;;;;;;;0.70;79.50;;;;;;5022733;28;94652;-47
2022/02/02 10:50:49;;;;;;;;;;;0.70;79.50;;;;;;5023253;28;92205;-44
2022/02/02 11:08:50;;;;;;;;;;;0.80;78.90;;;;;;5025708;28;92638;-44
2022/02/02 11:11:15;;;;;;;;;;;0.80;79.00;;;;;;5022957;28;91303;-43
2022/02/02 11:13:42;;;;;;;;;;;0.80;79.00;;;;;;5022854;28;93304;-44
2022/02/02 11:16:10;;;;;;;;;;;0.80;79.10;;;;;;5022173;28;94511;-44
2022/02/02 11:18:37;;;;;;;;;;;0.80;79.10;;;;;;5022031;28;93126;-44
2022/02/02 11:21:06;;;;;;;;;;;0.80;79.00;;;;;;5022449;28;94659;-43
2022/02/02 11:23:57;;;;;;;;;;;0.80;79.20;;;;;;5022251;28;94584;-43
2022/02/02 11:26:41;;;;;;;;;;;0.80;79.40;;;;;;5022766;28;91987;-44
2022/02/02 11:29:07;;;;;;;;;;;0.80;79.20;;;;;;5022202;28;93938;-44
2022/02/02 11:31:33;;;;;;;;;;;0.90;79.10;;;;;;5025019;28;94447;-44
2022/02/02 11:33:59;;;;;;;;;;;0.90;79.20;;;;;;5022845;28;92088;-43
2022/02/02 11:36:38;;;;;;;;;;;0.90;79.10;;;;;;5021139;28;95562;-43
2022/02/02 11:39:06;;;;;;;;;;;0.90;79.10;;;;;;5021194;28;92136;-44
2022/02/02 11:46:49;;;;;;;;;;;0.90;79.20;;;;;;5020308;28;91995;-43
2022/02/02 11:49:24;;;;;;;;;;;0.80;79.30;;;;;;5022306;28;94016;-44
2022/02/02 11:51:58;;;;;;;;;;;0.80;79.30;;;;;;5021617;28;94626;-43
2022/02/02 11:54:42;;;;;;;;;;;0.90;79.30;;;;;;5024985;28;93038;-45
2022/02/02 11:57:21;;;;;;;;;;;0.90;79.40;;;;;;5021447;28;94247;-44
2022/02/02 12:02:36;;;;;;;;;;;0.90;79.40;;;;;;5022520;28;92465;-45
2022/02/02 12:07:46;;;;;;;;;;;0.80;79.50;;;;;;5021810;28;92013;-43
2022/02/02 12:10:17;;;;;;;;;;;0.90;79.40;;;;;;5021135;28;93675;-43
2022/02/02 12:19:08;;;;;;;;;;;0.90;79.40;;;;;;5022471;28;91984;-44
2022/02/02 12:27:50;;;;;;;;;;;0.90;79.40;;;;;;5021419;28;91904;-45
2022/02/02 12:48:59;;;;;;;;;;;1.10;79.30;;;;;;5020822;28;92994;-44
2022/02/02 12:55:21;;;;;;;;;;;1.00;79.40;;;;;;5021492;28;92154;-44
2022/02/02 12:57:19;;;;;;;;;;;1.00;79.50;;;;;;5020535;28;92227;-44
2022/02/02 13:02:15;;;;;;;;;;;1.00;79.60;;;;;;5021189;28;92564;-44
2022/02/02 13:04:41;;;;;;;;;;;1.00;79.50;;;;;;5022971;28;95539;-44
2022/02/02 13:07:07;;;;;;;;;;;1.00;79.50;;;;;;5020833;28;94858;-45
2022/02/02 13:09:33;;;;;;;;;;;1.00;79.40;;;;;;5019990;28;94480;-45
2022/02/02 13:12:15;;;;;;;;;;;1.00;79.30;;;;;;5020860;28;92143;-43
2022/02/02 13:14:57;;;;;;;;;;;1.00;79.40;;;;;;5021119;28;92913;-44
2022/02/02 13:17:23;;;;;;;;;;;1.00;79.50;;;;;;5020392;28;93527;-45
2022/02/02 13:20:00;;;;;;;;;;;1.00;79.60;;;;;;5020734;28;92169;-44
2022/02/02 13:22:29;;;;;;;;;;;1.00;79.30;;;;;;5021204;28;92994;-44
2022/02/02 13:24:55;;;;;;;;;;;1.00;79.40;;;;;;5020603;28;92269;-43
2022/02/02 13:27:21;;;;;;;;;;;1.00;79.40;;;;;;5023892;28;92210;-43
2022/02/02 13:29:51;;;;;;;;;;;1.00;79.20;;;;;;5019318;28;95883;-44
2022/02/02 13:35:15;;;;;;;;;;;1.00;79.50;;;;;;5020797;28;92438;-44
2022/02/02 14:09:18;;;;;;;;;;;1.00;79.50;;;;;;5020339;28;91880;-45
2022/02/02 14:33:26;;;;;;;;;;;1.10;79.50;;;;;;5017299;28;91881;-45
2022/02/02 14:35:59;;;;;;;;;;;1.10;79.60;;;;;;5022424;28;94602;-44
2022/02/02 14:38:25;;;;;;;;;;;1.10;79.60;;;;;;5019752;28;93637;-44
2022/02/02 14:43:21;;;;;;;;;;;1.10;79.40;;;;;;5019260;28;92042;-44
2022/02/02 14:45:52;;;;;;;;;;;1.10;79.60;;;;;;5019680;28;93529;-44
2022/02/02 14:48:26;;;;;;;;;;;1.10;79.50;;;;;;5018262;28;95271;-44
2022/02/02 14:51:03;;;;;;;;;;;1.10;79.60;;;;;;5019507;28;93345;-44
2022/02/02 15:29:06;;;;;;;;;;;1.10;79.80;;;;;;5021873;28;91984;-45
2022/02/02 15:31:33;;;;;;;;;;;1.10;80.00;;;;;;5021722;28;94659;-45
2022/02/02 15:34:00;;;;;;;;;;;1.10;79.90;;;;;;5023055;28;91432;-44
2022/02/02 15:37:03;;;;;;;;;;;1.10;80.00;;;;;;5022378;28;92959;-44
2022/02/02 15:39:19;;;;;;;;;;;1.00;80.00;;;;;;5021277;28;93383;-44
2022/02/02 16:03:14;;;;;;;;;;;1.10;80.10;;;;;;5021793;28;91979;-44
2022/02/02 16:05:48;;;;;;;;;;;1.10;80.10;;;;;;5021881;28;94137;-43
2022/02/02 16:08:16;;;;;;;;;;;1.10;80.00;;;;;;5020591;28;95402;-44
2022/02/02 16:13:26;;;;;;;;;;;1.10;80.10;;;;;;5021440;28;93087;-44
2022/02/02 16:15:57;;;;;;;;;;;1.10;80.10;;;;;;5020624;28;92077;-44
2022/02/02 16:37:38;;;;;;;;;;;1.10;79.80;;;;;;5019787;28;91896;-44
2022/02/02 16:40:05;;;;;;;;;;;1.10;79.90;;;;;;5021402;28;93678;-45
2022/02/02 16:45:17;;;;;;;;;;;1.10;80.00;;;;;;5019293;28;91904;-44
2022/02/02 16:47:42;;;;;;;;;;;1.10;80.00;;;;;;5021475;28;92505;-43
2022/02/02 16:50:10;;;;;;;;;;;1.10;80.00;;;;;;5020605;28;94408;-43
2022/02/02 16:52:36;;;;;;;;;;;1.10;80.00;;;;;;5021495;28;91464;-44
2022/02/02 16:55:09;;;;;;;;;;;1.20;80.10;;;;;;5023763;28;93585;-44
2022/02/02 16:57:52;;;;;;;;;;;1.10;79.90;;;;;;5021038;28;92247;-45
2022/02/02 17:32:40;;;;;;;;;;;1.20;79.90;;;;;;5020131;28;92976;-45
2022/02/02 17:37:47;;;;;;;;;;;1.20;79.80;;;;;;5018460;28;92283;-44
2022/02/02 18:12:38;;;;;;;;;;;1.30;79.80;;;;;;5020305;28;91470;-46
2022/02/02 18:20:36;;;;;;;;;;;1.20;79.70;;;;;;5019566;28;92839;-43
2022/02/02 18:23:11;;;;;;;;;;;1.20;79.70;;;;;;5019296;28;93962;-44
2022/02/02 18:25:45;;;;;;;;;;;1.20;79.70;;;;;;5020181;28;92012;-44
2022/02/02 18:28:24;;;;;;;;;;;1.20;79.70;;;;;;5019845;28;93999;-44
2022/02/02 18:35:49;;;;;;;;;;;1.20;79.60;;;;;;5019269;28;93115;-44
2022/02/02 18:46:35;;;;;;;;;;;1.20;79.30;;;;;;5006646;28;93080;-44
2022/02/02 18:54:26;;;;;;;;;;;1.20;79.40;;;;;;5025856;28;92122;-44
2022/02/02 18:57:41;;;;;;;;;;;1.30;79.50;;;;;;5022721;28;94555;-44
2022/02/02 20:02:34;;;;;;;;;;;1.30;79.50;;;;;;5022319;28;91888;-44
2022/02/02 20:05:17;;;;;;;;;;;1.30;79.50;;;;;;5024177;28;94144;-44
2022/02/02 20:07:53;;;;;;;;;;;1.30;79.50;;;;;;5021268;28;93806;-44
2022/02/02 20:12:47;;;;;;;;;;;1.30;79.50;;;;;;5022124;28;91985;-44
2022/02/02 20:15:14;;;;;;;;;;;1.30;79.50;;;;;;5021789;28;93893;-45
2022/02/02 20:17:40;;;;;;;;;;;1.30;79.60;;;;;;5021160;28;94379;-44
2022/02/02 20:20:15;;;;;;;;;;;1.30;79.50;;;;;;5021701;28;92172;-44
2022/02/02 20:22:42;;;;;;;;;;;1.30;79.50;;;;;;5022142;28;92109;-44
2022/02/02 20:25:09;;;;;;;;;;;1.30;79.50;;;;;;5021959;28;92372;-45
2022/02/02 20:27:36;;;;;;;;;;;1.30;79.60;;;;;;5024640;28;92169;-44
2022/02/02 20:30:04;;;;;;;;;;;1.20;79.40;;;;;;5020965;28;94537;-44
2022/02/02 20:32:29;;;;;;;;;;;1.30;79.50;;;;;;5020831;27;92847;-44
2022/02/02 20:34:55;;;;;;;;;;;1.20;79.60;;;;;;5021451;28;94056;-44
2022/02/02 20:37:21;;;;;;;;;;;1.20;79.60;;;;;;5021231;28;94353;-45
2022/02/02 20:42:15;;;;;;;;;;;1.30;79.50;;;;;;5021054;28;92531;-43
2022/02/02 20:44:57;;;;;;;;;;;1.30;79.50;;;;;;5020701;28;94769;-44
2022/02/02 21:11:34;;;;;;;;;;;1.20;79.50;;;;;;5023877;28;92133;-45
2022/02/02 21:14:00;;;;;;;;;;;1.20;79.50;;;;;;5020433;28;91874;-44
2022/02/02 21:16:29;;;;;;;;;;;1.20;79.60;;;;;;5021306;28;94106;-44
2022/02/02 21:18:58;;;;;;;;;;;1.20;79.60;;;;;;5020107;28;93546;-44
2022/02/02 21:21:35;;;;;;;;;;;1.20;79.60;;;;;;5020824;28;92154;-45
2022/02/02 21:27:04;;;;;;;;;;;1.20;79.50;;;;;;5020529;28;92346;-44
2022/02/02 21:29:29;;;;;;;;;;;1.20;79.50;;;;;;5020832;28;91929;-44
2022/02/02 21:31:55;;;;;;;;;;;1.20;79.50;;;;;;5020810;28;94299;-44
2022/02/02 21:34:22;;;;;;;;;;;1.20;79.50;;;;;;5023111;28;95052;-44
2022/02/02 21:36:48;;;;;;;;;;;1.20;79.50;;;;;;5020598;28;94551;-44
2022/02/02 21:39:22;;;;;;;;;;;1.20;79.50;;;;;;5019997;28;94557;-44
2022/02/02 21:41:50;;;;;;;;;;;1.20;79.40;;;;;;5020312;28;92112;-44
2022/02/02 21:44:16;;;;;;;;;;;1.20;79.40;;;;;;5020631;28;93173;-44
2022/02/02 21:46:42;;;;;;;;;;;1.20;79.40;;;;;;5019982;28;94647;-44
2022/02/02 21:49:15;;;;;;;;;;;1.20;79.40;;;;;;5019767;28;92876;-44
2022/02/02 21:51:51;;;;;;;;;;;1.20;79.40;;;;;;5020415;28;94794;-44
2022/02/02 21:54:16;;;;;;;;;;;1.20;79.50;;;;;;5019750;28;94373;-44
2022/02/02 21:56:42;;;;;;;;;;;1.20;79.50;;;;;;5023539;28;92184;-44
2022/02/02 21:59:08;;;;;;;;;;;1.20;79.40;;;;;;5019670;28;94903;-46
2022/02/02 22:01:33;;;;;;;;;;;1.20;79.50;;;;;;5020330;28;92141;-44
2022/02/02 22:03:59;;;;;;;;;;;1.20;79.50;;;;;;5020291;28;93983;-44
2022/02/02 22:06:24;;;;;;;;;;;1.20;79.50;;;;;;5020128;28;93839;-44
2022/02/02 22:08:50;;;;;;;;;;;1.20;79.50;;;;;;5020013;28;92165;-44
2022/02/02 22:11:15;;;;;;;;;;;1.20;79.50;;;;;;5019874;28;93953;-44
2022/02/02 22:13:44;;;;;;;;;;;1.20;79.40;;;;;;5019030;28;95303;-45
2022/02/02 22:16:15;;;;;;;;;;;1.20;79.40;;;;;;5019940;28;92139;-45
2022/02/02 22:18:41;;;;;;;;;;;1.20;79.40;;;;;;5022699;28;93840;-44
2022/02/02 22:21:07;;;;;;;;;;;1.20;79.40;;;;;;5019819;28;92144;-44
2022/02/02 22:23:35;;;;;;;;;;;1.20;79.40;;;;;;5019932;28;93806;-44
2022/02/02 22:26:00;;;;;;;;;;;1.20;80.00;;;;;;5018320;28;94395;-44
2022/02/02 22:28:26;;;;;;;;;;;1.20;79.50;;;;;;5019725;28;92163;-44
2022/02/02 22:30:51;;;;;;;;;;;1.20;79.50;;;;;;5020250;28;94033;-44
2022/02/02 22:33:17;;;;;;;;;;;1.20;79.60;;;;;;5019398;28;94609;-44
2022/02/02 22:35:42;;;;;;;;;;;1.20;79.60;;;;;;5019746;28;92191;-44
2022/02/02 22:38:09;;;;;;;;;;;1.20;79.50;;;;;;5019171;28;93704;-44
2022/02/02 22:40:35;;;;;;;;;;;1.10;79.40;;;;;;5022334;28;94670;-44
2022/02/02 22:43:00;;;;;;;;;;;1.20;79.50;;;;;;5019578;28;94140;-44
2022/02/02 22:45:27;;;;;;;;;;;1.20;79.50;;;;;;5019284;28;94279;-44
2022/02/02 22:47:53;;;;;;;;;;;1.20;79.40;;;;;;5019670;28;92158;-44
2022/02/02 22:50:20;;;;;;;;;;;1.20;79.40;;;;;;5019762;28;93427;-44
2022/02/02 22:52:49;;;;;;;;;;;1.10;79.40;;;;;;5019041;28;94052;-44
2022/02/02 22:55:17;;;;;;;;;;;1.20;79.50;;;;;;5019929;28;91420;-44
2022/02/02 22:57:42;;;;;;;;;;;1.10;79.30;;;;;;5019573;28;93544;-44
2022/02/02 23:00:21;;;;;;;;;;;1.20;79.40;;;;;;5018832;28;94740;-44
2022/02/02 23:05:16;;;;;;;;;;;1.20;79.40;;;;;;5018955;28;93054;-44
2022/02/02 23:07:41;;;;;;;;;;;1.10;79.40;;;;;;5019148;28;91995;-44
2022/02/02 23:10:07;;;;;;;;;;;1.10;79.40;;;;;;5019378;28;93710;-44
2022/02/02 23:12:33;;;;;;;;;;;1.10;79.30;;;;;;5018677;28;94254;-44
2022/02/02 23:15:04;;;;;;;;;;;1.10;79.40;;;;;;5019460;28;92167;-44
2022/02/02 23:17:31;;;;;;;;;;;1.10;79.30;;;;;;5019341;28;95266;-43
2022/02/02 23:19:57;;;;;;;;;;;1.20;79.30;;;;;;5019122;28;93516;-44
2022/02/02 23:22:27;;;;;;;;;;;1.20;79.30;;;;;;5022375;28;92189;-44
2022/02/02 23:24:56;;;;;;;;;;;1.10;79.30;;;;;;5018656;28;94213;-44
2022/02/02 23:27:22;;;;;;;;;;;1.10;79.40;;;;;;5018491;28;92902;-44
2022/02/02 23:29:51;;;;;;;;;;;1.10;79.40;;;;;;5019122;28;95076;-43
2022/02/02 23:32:19;;;;;;;;;;;1.20;79.30;;;;;;5018292;28;94406;-44
2022/02/02 23:34:46;;;;;;;;;;;1.10;79.20;;;;;;5018987;28;92160;-44
2022/02/02 23:37:11;;;;;;;;;;;1.10;79.30;;;;;;5021131;28;93062;-44
2022/02/02 23:39:38;;;;;;;;;;;1.20;79.40;;;;;;5021691;28;94854;-44
2022/02/02 23:42:27;;;;;;;;;;;1.10;79.30;;;;;;5022240;28;92140;-44
2022/02/02 23:44:53;;;;;;;;;;;1.10;79.40;;;;;;5025526;28;93491;-44
2022/02/02 23:47:20;;;;;;;;;;;1.10;79.40;;;;;;5021942;28;92104;-44
2022/02/02 23:49:53;;;;;;;;;;;1.10;79.40;;;;;;5022202;28;93775;-44
2022/02/02 23:52:24;;;;;;;;;;;1.10;79.60;;;;;;5020974;28;95635;-44
2022/02/02 23:54:52;;;;;;;;;;;1.10;79.60;;;;;;5022148;28;91947;-44
2022/02/02 23:58:07;;;;;;;;;;;1.10;79.50;;;;;;5022202;28;93423;-44
